createdAt,value
2022-11-05T00:00:12.313Z,14.38
2022-11-05T00:10:26.030Z,14.15
2022-11-05T00:20:29.118Z,13.87
2022-11-05T00:30:33.642Z,13.83
2022-11-05T00:40:36.697Z,13.88
2022-11-05T00:50:41.242Z,13.80
2022-11-05T01:00:46.161Z,13.43
2022-11-05T01:10:52.225Z,13.37
2022-11-05T01:20:55.322Z,13.24
2022-11-05T01:30:59.902Z,13.12
2022-11-05T01:41:03.014Z,13.06
2022-11-05T01:51:09.821Z,13.14
2022-11-05T02:01:13.354Z,12.69
2022-11-05T02:11:19.621Z,12.66
2022-11-05T02:22:02.169Z,12.74
2022-11-05T02:32:12.112Z,12.23
2022-11-05T02:42:24.744Z,12.35
2022-11-05T02:52:34.716Z,12.77
2022-11-05T03:02:37.939Z,12.88
2022-11-05T03:12:52.299Z,12.78
2022-11-05T03:23:00.670Z,12.69
2022-11-05T03:33:08.858Z,12.65
2022-11-05T03:43:13.058Z,12.53
2022-11-05T03:53:19.898Z,12.45
2022-11-05T04:03:23.002Z,12.54
2022-11-05T04:13:27.920Z,12.43
2022-11-05T04:23:48.397Z,12.46
2022-11-05T04:33:52.818Z,11.86
2022-11-05T04:43:55.926Z,11.71
2022-11-05T04:54:00.437Z,12.29
2022-11-05T05:04:03.548Z,9.98
2022-11-05T05:14:07.977Z,11.92
2022-11-05T05:24:12.512Z,12.24
2022-11-05T05:34:17.012Z,12.18
2022-11-05T05:44:20.154Z,12.27
2022-11-05T05:54:29.257Z,12.21
2022-11-05T06:04:35.410Z,12.26
2022-11-05T06:14:39.838Z,12.43
2022-11-05T06:24:43.066Z,12.47
2022-11-05T06:34:47.503Z,12.49
2022-11-05T06:44:50.632Z,11.53
2022-11-05T06:54:55.120Z,11.48
2022-11-05T07:04:58.190Z,12.33
2022-11-05T07:15:02.625Z,12.47
2022-11-05T07:25:06.380Z,12.60
2022-11-05T07:35:11.454Z,12.88
2022-11-05T07:45:14.922Z,13.13
2022-11-05T07:55:20.830Z,13.27
2022-11-05T08:05:23.911Z,13.04
2022-11-05T08:15:28.450Z,13.26
2022-11-05T08:25:31.809Z,13.43
2022-11-05T08:35:37.190Z,13.54
2022-11-05T08:45:41.150Z,13.41
2022-11-05T08:55:47.627Z,13.40
2022-11-05T09:05:50.908Z,13.72
2022-11-05T09:15:55.344Z,13.80
2022-11-05T09:25:58.456Z,13.95
2022-11-05T09:36:03.116Z,14.16
2022-11-05T09:46:12.755Z,14.20
2022-11-05T09:56:22.555Z,14.16
2022-11-05T10:06:27.945Z,13.89
2022-11-05T10:16:35.288Z,14.01
2022-11-05T10:26:38.481Z,14.38
2022-11-05T10:36:42.983Z,14.29
2022-11-05T10:46:51.080Z,15.18
2022-11-05T10:56:55.530Z,15.44
2022-11-05T11:07:00.116Z,15.72
2022-11-05T11:17:27.856Z,15.83
2022-11-05T11:27:34.445Z,16.25
2022-11-05T11:37:42.195Z,16.06
2022-11-05T11:47:47.234Z,16.07
2022-11-05T11:57:53.895Z,16.27
2022-11-05T12:08:01.127Z,16.42
2022-11-05T12:18:07.860Z,16.60
2022-11-05T12:28:19.878Z,16.63
2022-11-05T12:38:34.912Z,16.57
2022-11-05T12:48:54.798Z,16.47
2022-11-05T12:59:02.433Z,16.35
2022-11-05T13:09:09.126Z,16.35
2022-11-05T13:19:19.797Z,16.04
2022-11-05T13:29:28.097Z,16.26
2022-11-05T13:39:36.221Z,16.18
2022-11-05T13:50:15.458Z,16.15
2022-11-05T14:00:21.832Z,16.16
2022-11-05T14:10:33.793Z,16.07
2022-11-05T14:20:47.029Z,15.53
2022-11-05T14:30:50.354Z,15.50
2022-11-05T14:41:01.999Z,15.33
2022-11-05T14:51:20.613Z,15.12
2022-11-05T15:01:56.543Z,15.20
2022-11-05T15:12:11.210Z,15.25
2022-11-05T15:22:25.298Z,15.28
2022-11-05T15:32:28.802Z,15.07
2022-11-05T15:42:33.604Z,15.01
2022-11-05T15:52:42.196Z,15.07
2022-11-05T16:02:52.709Z,14.69
2022-11-05T16:30:55.900Z,14.80
2022-11-05T16:41:00.360Z,14.92
2022-11-05T16:51:05.253Z,14.59
2022-11-05T17:01:14.951Z,14.32
2022-11-05T17:11:21.559Z,14.13
2022-11-05T17:21:25.294Z,14.04
2022-11-05T17:31:29.929Z,13.84
2022-11-05T17:41:33.313Z,13.54
2022-11-05T17:51:38.674Z,13.41
2022-11-05T18:01:43.692Z,13.46
2022-11-05T18:11:48.429Z,13.49
2022-11-05T18:21:52.078Z,13.24
2022-11-05T18:31:56.570Z,12.97
2022-11-05T18:41:59.966Z,13.15
2022-11-05T18:52:05.360Z,13.24
2022-11-05T19:02:09.738Z,13.03
2022-11-05T19:12:14.443Z,12.94
2022-11-05T19:22:18.446Z,12.74
2022-11-05T19:32:22.958Z,12.87
2022-11-05T19:42:26.297Z,12.99
2022-11-05T19:52:30.763Z,13.00
2022-11-05T20:02:33.952Z,12.98
2022-11-05T20:12:39.869Z,13.26
2022-11-05T20:22:43.433Z,13.31
2022-11-05T20:32:48.143Z,13.36
2022-11-05T20:42:51.462Z,13.15
2022-11-05T20:52:56.219Z,13.24
2022-11-05T21:02:59.543Z,13.04
2022-11-05T21:13:04.228Z,13.05
2022-11-05T21:23:07.559Z,13.37
2022-11-05T21:33:12.762Z,13.11
2022-11-05T21:43:16.564Z,13.08
2022-11-05T21:53:53.846Z,13.00
2022-11-05T22:04:02.662Z,12.99
2022-11-05T22:14:07.669Z,13.15
2022-11-05T22:24:11.039Z,13.22
2022-11-05T22:34:15.495Z,13.02
2022-11-05T22:44:18.654Z,13.06
2022-11-05T22:54:23.117Z,13.28
2022-11-05T23:04:26.257Z,13.29
2022-11-05T23:14:30.985Z,13.30
2022-11-05T23:24:34.010Z,13.16
2022-11-05T23:34:38.988Z,13.28
2022-11-05T23:44:59.412Z,13.29
2022-11-05T23:55:03.979Z,13.34
